Time;durP1;ratioP1;P1;durP2;ratioP2;P2;SDS_P1;SDS_P2;PMS_P1;PMS_P2;Temp;Humidity;BMP_temperature;BMP_pressure;BME280_temperature;BME280_humidity;BME280_pressure;Samples;Min_cycle;Max_cycle;Signal;HPM_P1;HPM_P2
2022/09/21 00:01:59;;;;;;;1999.90;999.90;;;13.10;99.90;;;;;;4972833;28;20054;-76
2022/09/21 00:04:25;;;;;;;1999.90;999.90;;;13.00;99.90;;;;;;4973023;28;20026;-80
2022/09/21 00:06:51;;;;;;;1999.90;999.90;;;12.90;99.90;;;;;;4972843;28;20085;-76
2022/09/21 00:09:16;;;;;;;1999.90;999.90;;;12.90;99.90;;;;;;4972817;28;20026;-80
2022/09/21 00:11:42;;;;;;;1999.90;999.90;;;12.90;99.90;;;;;;4972614;28;20027;-76
2022/09/21 00:14:11;;;;;;;1999.90;999.90;;;12.80;99.90;;;;;;4973255;28;20034;-76
2022/09/21 00:16:38;;;;;;;1999.90;999.90;;;12.80;99.90;;;;;;4980723;28;20038;-76
2022/09/21 00:19:03;;;;;;;1999.90;999.90;;;12.80;99.90;;;;;;4991449;28;20030;-80
2022/09/21 00:21:29;;;;;;;1999.90;999.90;;;12.70;99.90;;;;;;4990764;28;20493;-76
2022/09/21 00:23:56;;;;;;;1999.90;999.90;;;12.70;99.90;;;;;;4991938;28;20019;-80
2022/09/21 00:26:24;;;;;;;1999.90;999.90;;;12.70;99.90;;;;;;4991607;28;20033;-76
2022/09/21 00:28:58;;;;;;;1999.90;999.90;;;12.60;99.90;;;;;;4992063;28;20018;-76
2022/09/21 00:31:24;;;;;;;1999.90;999.90;;;12.70;99.90;;;;;;4994023;28;20054;-76
2022/09/21 00:33:51;;;;;;;1999.90;999.90;;;12.70;99.90;;;;;;4995674;28;20553;-80
2022/09/21 00:36:18;;;;;;;1999.90;999.90;;;12.60;99.90;;;;;;4995767;28;20022;-80
2022/09/21 00:38:48;;;;;;;1999.90;999.90;;;12.60;99.90;;;;;;4995603;28;20035;-75
2022/09/21 00:41:14;;;;;;;1999.90;999.90;;;12.60;99.90;;;;;;4995558;28;20023;-76
2022/09/21 00:43:45;;;;;;;1999.90;999.90;;;12.60;99.90;;;;;;4995649;28;20493;-76
2022/09/21 00:46:25;;;;;;;1999.90;999.90;;;12.60;99.90;;;;;;4995613;28;20022;-80
2022/09/21 00:48:51;;;;;;;1999.90;999.90;;;12.60;99.90;;;;;;4995302;28;20030;-81
2022/09/21 00:51:17;;;;;;;1999.90;999.90;;;12.60;99.90;;;;;;4995331;28;20030;-76
2022/09/21 00:53:44;;;;;;;1999.90;999.90;;;12.50;99.90;;;;;;4995439;28;20034;-76
2022/09/21 00:56:11;;;;;;;1999.90;999.90;;;12.60;99.90;;;;;;4995702;28;20061;-80
2022/09/21 00:58:45;;;;;;;1999.90;999.90;;;12.50;99.90;;;;;;4976240;28;20037;-76
2022/09/21 01:01:14;;;;;;;1999.90;999.90;;;12.50;99.90;;;;;;4975729;28;20041;-75
2022/09/21 01:03:44;;;;;;;1999.90;999.90;;;12.40;99.90;;;;;;4975591;28;20378;-76
2022/09/21 01:06:11;;;;;;;1999.90;999.90;;;12.40;99.90;;;;;;4975490;28;20043;-76
2022/09/21 01:08:37;;;;;;;1999.90;999.90;;;12.40;99.90;;;;;;4975957;28;20026;-80
2022/09/21 01:11:28;;;;;;;1999.90;999.90;;;12.40;99.90;;;;;;4990595;28;20049;-75
2022/09/21 01:14:18;;;;;;;1999.90;999.90;;;12.40;99.90;;;;;;4975781;28;20037;-80
2022/09/21 01:17:26;;;;;;;1999.90;999.90;;;12.40;99.90;;;;;;4983761;28;20048;-76
2022/09/21 01:20:07;;;;;;;1999.90;999.90;;;12.30;99.90;;;;;;4998048;28;20038;-75
2022/09/21 01:23:03;;;;;;;1999.90;999.90;;;12.30;99.90;;;;;;4995146;28;20041;-80
2022/09/21 01:25:47;;;;;;;1999.90;999.90;;;12.20;99.90;;;;;;4994083;28;20205;-76
2022/09/21 01:28:23;;;;;;;1999.90;999.90;;;12.20;99.90;;;;;;4994801;28;20033;-80
2022/09/21 01:30:53;;;;;;;1999.90;999.90;;;12.20;99.90;;;;;;4994817;28;20022;-75
2022/09/21 01:33:28;;;;;;;1999.90;999.90;;;12.20;99.90;;;;;;4994322;28;20058;-75
2022/09/21 01:35:57;;;;;;;1999.90;999.90;;;12.10;99.90;;;;;;4994825;28;20038;-80
2022/09/21 01:38:39;;;;;;;1999.90;999.90;;;12.10;99.90;;;;;;4994207;28;20030;-75
2022/09/21 01:41:06;;;;;;;1999.90;999.90;;;12.10;99.90;;;;;;4994137;28;20054;-75
2022/09/21 01:43:44;;;;;;;1999.90;999.90;;;12.10;99.90;;;;;;4993256;28;20616;-75
2022/09/21 01:46:15;;;;;;;1999.90;999.90;;;12.10;99.90;;;;;;4994739;28;20030;-76
2022/09/21 01:48:45;;;;;;;1999.90;999.90;;;12.00;99.90;;;;;;4994125;28;20181;-80
2022/09/21 01:51:13;;;;;;;1999.90;999.90;;;12.00;99.90;;;;;;4994420;28;20030;-75
2022/09/21 01:53:45;;;;;;;1999.90;999.90;;;12.00;99.90;;;;;;4993070;28;20026;-80
2022/09/21 01:56:23;;;;;;;1999.90;999.90;;;11.90;99.90;;;;;;4994512;28;20106;-75
2022/09/21 01:58:51;;;;;;;1999.90;999.90;;;11.90;99.90;;;;;;4974934;28;20030;-75
2022/09/21 02:01:22;;;;;;;1999.90;999.90;;;11.90;99.90;;;;;;4974105;28;20399;-80
2022/09/21 02:03:57;;;;;;;1999.90;999.90;;;11.90;99.90;;;;;;4989340;28;20030;-80
2022/09/21 02:06:25;;;;;;;1999.90;999.90;;;11.80;99.90;;;;;;4974793;28;20058;-80
2022/09/21 02:08:52;;;;;;;1999.90;999.90;;;11.90;99.90;;;;;;4974583;28;20031;-76
2022/09/21 02:11:17;;;;;;;1999.90;999.90;;;11.90;99.90;;;;;;4974586;28;20041;-75
2022/09/21 02:13:47;;;;;;;1999.90;999.90;;;11.80;99.90;;;;;;4989379;28;20056;-80
2022/09/21 02:16:38;;;;;;;1999.90;999.90;;;11.80;99.90;;;;;;4979802;28;20109;-75
2022/09/21 02:19:21;;;;;;;1999.90;999.90;;;11.80;99.90;;;;;;4993256;28;20097;-80
2022/09/21 02:21:54;;;;;;;1999.90;999.90;;;11.80;99.90;;;;;;4993863;28;20089;-75
2022/09/21 02:24:37;;;;;;;1999.90;999.90;;;11.70;99.90;;;;;;4993815;28;20049;-75
2022/09/21 02:27:04;;;;;;;1999.90;999.90;;;11.70;99.90;;;;;;4992975;28;20034;-80
2022/09/21 02:30:01;;;;;;;1999.90;999.90;;;11.80;99.90;;;;;;4993597;28;20145;-80
2022/09/21 02:33:21;;;;;;;1999.90;999.90;;;11.70;99.90;;;;;;4996444;28;20117;-75
2022/09/21 02:36:15;;;;;;;1999.90;999.90;;;11.70;99.90;;;;;;5010926;28;20486;-80
2022/09/21 02:39:00;;;;;;;1999.90;999.90;;;11.70;99.90;;;;;;4993496;28;20054;-75
2022/09/21 02:41:32;;;;;;;1999.90;999.90;;;11.60;99.90;;;;;;4993295;28;20081;-75
2022/09/21 02:44:05;;;;;;;1999.90;999.90;;;11.60;99.90;;;;;;4993537;28;20026;-80
2022/09/21 02:46:39;;;;;;;1999.90;999.90;;;11.60;99.90;;;;;;4993175;28;20062;-80
2022/09/21 02:49:18;;;;;;;1999.90;999.90;;;11.60;99.90;;;;;;4991953;28;20023;-76
2022/09/21 02:51:48;;;;;;;1999.90;999.90;;;11.60;99.90;;;;;;4993255;28;20034;-76
2022/09/21 02:54:18;;;;;;;1999.90;999.90;;;11.50;99.90;;;;;;4992770;28;20022;-80
2022/09/21 02:56:46;;;;;;;1999.90;999.90;;;11.50;99.90;;;;;;4989380;28;20490;-76
2022/09/21 02:59:12;;;;;;;1999.90;999.90;;;11.50;99.90;;;;;;4973706;28;20546;-80
2022/09/21 03:01:39;;;;;;;1999.90;999.90;;;11.50;99.90;;;;;;4971916;28;20406;-76
2022/09/21 03:04:05;;;;;;;1999.90;999.90;;;11.50;99.90;;;;;;4973910;28;20019;-76
2022/09/21 03:06:31;;;;;;;1999.90;999.90;;;11.50;99.90;;;;;;4973241;28;20055;-80
2022/09/21 03:08:57;;;;;;;1999.90;999.90;;;11.50;99.90;;;;;;4973531;28;20023;-80
2022/09/21 03:11:23;;;;;;;1999.90;999.90;;;11.40;99.90;;;;;;4973302;28;20154;-80
2022/09/21 03:13:49;;;;;;;1999.90;999.90;;;11.40;99.90;;;;;;4973448;28;20042;-80
2022/09/21 03:16:15;;;;;;;1999.90;999.90;;;11.40;99.90;;;;;;4978803;28;20393;-75
2022/09/21 03:18:42;;;;;;;1999.90;999.90;;;11.40;99.90;;;;;;4992845;28;20509;-80
2022/09/21 03:21:08;;;;;;;1999.90;999.90;;;11.40;99.90;;;;;;4992376;28;20040;-80
2022/09/21 03:23:34;;;;;;;1999.90;999.90;;;11.40;99.90;;;;;;4992529;28;20548;-75
2022/09/21 03:26:00;;;;;;;1999.90;999.90;;;11.30;99.90;;;;;;4992899;28;20022;-80
2022/09/21 03:28:25;;;;;;;1999.90;999.90;;;11.30;99.90;;;;;;4992024;28;20022;-75
2022/09/21 03:30:51;;;;;;;1999.90;999.90;;;11.30;99.90;;;;;;4992612;28;20034;-75
2022/09/21 03:33:18;;;;;;;1999.90;999.90;;;11.30;99.90;;;;;;4990920;28;20029;-76
2022/09/21 03:35:45;;;;;;;1999.90;999.90;;;11.30;99.90;;;;;;4992632;28;20041;-80
2022/09/21 03:38:10;;;;;;;1999.90;999.90;;;11.20;99.90;;;;;;4992676;28;20026;-80
2022/09/21 03:40:36;;;;;;;1999.90;999.90;;;11.20;99.90;;;;;;4992595;28;20367;-75
2022/09/21 03:43:02;;;;;;;1999.90;999.90;;;11.10;99.90;;;;;;4992447;28;20065;-75
2022/09/21 03:45:28;;;;;;;1999.90;999.90;;;11.10;99.90;;;;;;4992427;28;20042;-80
2022/09/21 03:47:58;;;;;;;1999.90;999.90;;;11.10;99.90;;;;;;4992181;28;20026;-80
2022/09/21 03:50:27;;;;;;;1999.90;999.90;;;11.10;99.90;;;;;;4992331;28;20121;-75
2022/09/21 03:52:52;;;;;;;1999.90;999.90;;;11.10;99.90;;;;;;4992555;28;20030;-76
2022/09/21 03:55:18;;;;;;;1999.90;999.90;;;11.00;99.90;;;;;;4992418;28;20485;-75
2022/09/21 03:57:44;;;;;;;1999.90;999.90;;;11.00;99.90;;;;;;4981841;28;20062;-75
2022/09/21 04:00:10;;;;;;;1999.90;999.90;;;11.00;99.90;;;;;;4973025;28;20030;-80
2022/09/21 04:02:37;;;;;;;1999.90;999.90;;;10.90;99.90;;;;;;4972869;28;20027;-75
2022/09/21 04:05:03;;;;;;;1999.90;999.90;;;10.90;99.90;;;;;;4974164;28;20050;-80
2022/09/21 04:07:33;;;;;;;1999.90;999.90;;;10.90;99.90;;;;;;4975539;28;20464;-75
2022/09/21 04:09:59;;;;;;;1999.90;999.90;;;10.90;99.90;;;;;;4976824;28;20485;-75
2022/09/21 04:12:25;;;;;;;1999.90;999.90;;;10.90;99.90;;;;;;4975397;28;20027;-80
2022/09/21 04:14:51;;;;;;;1999.90;999.90;;;10.90;99.90;;;;;;4976721;28;20038;-80
2022/09/21 04:17:17;;;;;;;1999.90;999.90;;;10.90;99.90;;;;;;4989118;28;20022;-75
2022/09/21 04:19:44;;;;;;;1999.90;999.90;;;10.80;99.90;;;;;;4995609;28;20070;-75
2022/09/21 04:22:11;;;;;;;1999.90;999.90;;;10.80;99.90;;;;;;4996384;28;20127;-75
2022/09/21 04:24:39;;;;;;;1999.90;999.90;;;10.80;99.90;;;;;;4995956;28;20034;-80
2022/09/21 04:27:06;;;;;;;1999.90;999.90;;;10.80;99.90;;;;;;4996009;28;20018;-80
2022/09/21 04:29:32;;;;;;;1999.90;999.90;;;10.80;99.90;;;;;;4994927;28;20434;-80
2022/09/21 04:31:58;;;;;;;1999.90;999.90;;;10.80;99.90;;;;;;4995640;28;20022;-75
2022/09/21 04:34:23;;;;;;;1999.90;999.90;;;10.80;99.90;;;;;;4996023;28;20150;-75
2022/09/21 04:36:49;;;;;;;1999.90;999.90;;;10.80;99.90;;;;;;4995635;28;20018;-75
2022/09/21 04:39:14;;;;;;;1999.90;999.90;;;10.80;99.90;;;;;;4985906;28;20387;-80
2022/09/21 04:41:41;;;;;;;1999.90;999.90;;;10.80;99.90;;;;;;4975914;28;20038;-75
2022/09/21 04:44:06;;;;;;;1999.90;999.90;;;10.80;99.90;;;;;;4976214;28;20026;-80
2022/09/21 04:46:32;;;;;;;1999.90;999.90;;;10.80;99.90;;;;;;4976041;28;20034;-75
2022/09/21 04:48:58;;;;;;;1999.90;999.90;;;10.80;99.90;;;;;;4976030;28;20083;-80
2022/09/21 04:51:24;;;;;;;1999.90;999.90;;;10.70;99.90;;;;;;4975130;28;20030;-80
2022/09/21 04:53:50;;;;;;;1999.90;999.90;;;10.70;99.90;;;;;;4974586;28;20041;-80
2022/09/21 04:56:16;;;;;;;1999.90;999.90;;;10.70;99.90;;;;;;4992068;28;20030;-75
2022/09/21 04:58:42;;;;;;;1999.90;999.90;;;10.70;99.90;;;;;;4976944;28;20031;-75
2022/09/21 05:01:07;;;;;;;1999.90;999.90;;;10.70;99.90;;;;;;4975476;28;20486;-75
2022/09/21 05:03:33;;;;;;;1999.90;999.90;;;10.70;99.90;;;;;;4975351;28;20402;-75
2022/09/21 05:05:59;;;;;;;1999.90;999.90;;;10.70;99.90;;;;;;4975676;28;20085;-80
2022/09/21 05:11:20;;;;;;;1999.90;999.90;;;10.60;99.90;;;;;;4974347;28;20070;-80
2022/09/21 05:13:46;;;;;;;1999.90;999.90;;;10.60;99.90;;;;;;4975539;28;20027;-75
2022/09/21 05:16:12;;;;;;;1999.90;999.90;;;10.60;99.90;;;;;;4978240;28;20394;-80
2022/09/21 05:18:38;;;;;;;1999.90;999.90;;;10.60;99.90;;;;;;4994706;28;20034;-75
2022/09/21 05:21:05;;;;;;;1999.90;999.90;;;10.60;99.90;;;;;;4994493;28;20034;-80
2022/09/21 05:23:31;;;;;;;1999.90;999.90;;;10.60;99.90;;;;;;4994478;28;20022;-80
2022/09/21 05:25:58;;;;;;;1999.90;999.90;;;10.60;99.90;;;;;;4994829;28;20104;-75
2022/09/21 05:28:24;;;;;;;1999.90;999.90;;;10.60;99.90;;;;;;4994575;28;20490;-75
2022/09/21 05:31:01;;;;;;;1999.90;999.90;;;10.60;99.90;;;;;;4994029;28;20028;-80
2022/09/21 05:33:29;;;;;;;1999.90;999.90;;;10.60;99.90;;;;;;4993817;28;20034;-80
2022/09/21 05:36:26;;;;;;;1999.90;999.90;;;10.60;99.90;;;;;;4978451;28;20019;-75
2022/09/21 05:38:51;;;;;;;1999.90;999.90;;;10.60;99.90;;;;;;4986371;28;20053;-75
2022/09/21 05:41:17;;;;;;;1999.90;999.90;;;10.60;99.90;;;;;;4974782;28;20114;-80
2022/09/21 05:43:44;;;;;;;1999.90;999.90;;;10.60;99.90;;;;;;4974797;28;20030;-80
2022/09/21 05:46:39;;;;;;;1999.90;999.90;;;10.60;99.90;;;;;;4978651;28;20014;-80
2022/09/21 05:49:50;;;;;;;1999.90;999.90;;;10.60;99.90;;;;;;4993450;28;20073;-80
2022/09/21 05:52:32;;;;;;;1999.90;999.90;;;10.70;99.90;;;;;;4986212;28;20440;-75
2022/09/21 05:55:34;;;;;;;1999.90;999.90;;;10.70;99.90;;;;;;4993127;28;20065;-80
2022/09/21 05:58:21;;;;;;;1999.90;999.90;;;10.70;99.90;;;;;;4988216;28;20030;-78
2022/09/21 06:01:17;;;;;;;1999.90;999.90;;;10.70;99.90;;;;;;4977665;28;20026;-82
2022/09/21 06:03:43;;;;;;;1999.90;999.90;;;10.80;99.90;;;;;;4992708;28;20034;-76
2022/09/21 06:06:09;;;;;;;1999.90;999.90;;;10.80;99.90;;;;;;4993142;28;20049;-76
2022/09/21 06:08:35;;;;;;;1999.90;999.90;;;10.90;99.90;;;;;;4989824;28;20397;-81
2022/09/21 06:11:01;;;;;;;1999.90;999.90;;;10.90;99.90;;;;;;4992431;28;20034;-81
2022/09/21 06:13:26;;;;;;;1999.90;999.90;;;10.90;99.90;;;;;;4979904;28;20077;-81
2022/09/21 06:15:52;;;;;;;1999.90;999.90;;;10.90;99.90;;;;;;4982204;28;20651;-76
2022/09/21 06:18:18;;;;;;;1999.90;999.90;;;10.90;99.90;;;;;;4984300;28;20037;-76
2022/09/21 06:20:45;;;;;;;1999.90;999.90;;;11.00;99.90;;;;;;4984908;28;20053;-76
2022/09/21 06:23:12;;;;;;;1999.90;999.90;;;11.00;99.90;;;;;;4982390;28;20046;-82
2022/09/21 06:25:38;;;;;;;1999.90;999.90;;;11.00;99.90;;;;;;4977986;28;20023;-81
2022/09/21 06:28:08;;;;;;;1999.90;999.90;;;11.10;99.90;;;;;;4986522;28;20065;-81
2022/09/21 06:30:35;;;;;;;1999.90;999.90;;;11.10;99.90;;;;;;4991913;28;20507;-76
2022/09/21 06:33:03;;;;;;;1999.90;999.90;;;11.20;99.90;;;;;;4986438;28;20097;-76
2022/09/21 06:35:29;;;;;;;1999.90;999.90;;;11.30;99.90;;;;;;4979470;28;20561;-81
2022/09/21 06:37:59;;;;;;;1999.90;999.90;;;11.30;99.90;;;;;;4985489;28;20498;-81
2022/09/21 06:40:27;;;;;;;1999.90;999.90;;;11.40;99.90;;;;;;4983863;28;20031;-80
2022/09/21 06:42:59;;;;;;;1999.90;999.90;;;11.40;99.90;;;;;;4991298;28;20026;-76
2022/09/21 06:45:26;;;;;;;1999.90;999.90;;;11.50;99.90;;;;;;4983608;28;20105;-76
2022/09/21 06:47:51;;;;;;;1999.90;999.90;;;11.60;99.90;;;;;;4985994;28;20030;-81
2022/09/21 06:50:17;;;;;;;1999.90;999.90;;;11.70;99.90;;;;;;4980493;28;20497;-81
2022/09/21 06:52:43;;;;;;;1999.90;999.90;;;11.70;99.90;;;;;;4988606;28;20062;-76
2022/09/21 06:55:09;;;;;;;1999.90;999.90;;;11.90;99.90;;;;;;4991586;28;20149;-76
2022/09/21 06:57:37;;;;;;;1999.90;999.90;;;12.00;99.90;;;;;;4986417;28;20550;-76
2022/09/21 07:00:04;;;;;;;1999.90;999.90;;;12.10;99.90;;;;;;4981329;28;20026;-81
2022/09/21 07:02:30;;;;;;;1999.90;999.90;;;12.20;99.90;;;;;;4982778;28;20049;-81
2022/09/21 07:04:57;;;;;;;1999.90;999.90;;;12.20;99.90;;;;;;4988361;28;20580;-81
2022/09/21 07:07:23;;;;;;;1999.90;999.90;;;12.40;99.90;;;;;;4988516;28;20038;-76
2022/09/21 07:09:49;;;;;;;1999.90;999.90;;;12.50;99.90;;;;;;4986189;28;20045;-76
2022/09/21 07:12:15;;;;;;;1999.90;999.90;;;12.60;99.90;;;;;;4989992;28;20038;-76
2022/09/21 07:14:45;;;;;;;1999.90;999.90;;;12.70;99.90;;;;;;4988436;28;20034;-81
2022/09/21 07:17:11;;;;;;;1999.90;999.90;;;12.80;99.90;;;;;;4985216;28;20032;-81
2022/09/21 07:19:37;;;;;;;1999.90;999.90;;;12.90;99.90;;;;;;4984208;28;20041;-80
2022/09/21 07:22:03;;;;;;;1999.90;999.90;;;12.90;99.90;;;;;;4986964;28;20027;-76
2022/09/21 07:24:29;;;;;;;1999.90;999.90;;;13.10;99.90;;;;;;4986181;28;20489;-76
2022/09/21 07:26:54;;;;;;;1999.90;999.90;;;13.20;99.90;;;;;;4984830;28;20102;-79
2022/09/21 07:29:20;;;;;;;1999.90;999.90;;;13.80;99.90;;;;;;4987198;28;20488;-81
2022/09/21 07:31:46;;;;;;;1999.90;999.90;;;15.60;99.90;;;;;;4982571;28;20034;-80
2022/09/21 07:34:12;;;;;;;1999.90;999.90;;;15.50;99.90;;;;;;4982987;28;20026;-76
2022/09/21 07:36:38;;;;;;;1999.90;999.90;;;14.80;99.90;;;;;;4983757;28;20042;-76
2022/09/21 07:39:04;;;;;;;1999.90;999.90;;;14.60;99.90;;;;;;4979942;28;20026;-81
2022/09/21 07:41:30;;;;;;;1999.90;999.90;;;14.60;99.90;;;;;;4988459;28;20030;-79
2022/09/21 07:43:55;;;;;;;1999.90;999.90;;;14.60;99.90;;;;;;4985777;28;20477;-77
2022/09/21 07:46:21;;;;;;;1999.90;999.90;;;14.70;99.90;;;;;;4981297;28;20019;-76
2022/09/21 07:48:46;;;;;;;1999.90;999.90;;;14.80;99.90;;;;;;4986768;28;20030;-76
2022/09/21 07:51:14;;;;;;;1999.90;999.90;;;15.00;99.90;;;;;;4985096;28;20564;-81
2022/09/21 07:53:43;;;;;;;1999.90;999.90;;;15.40;99.90;;;;;;4988590;28;20037;-77
2022/09/21 07:56:11;;;;;;;1999.90;999.90;;;17.90;99.10;;;;;;4984417;28;20430;-77
2022/09/21 08:01:23;;;;;;;1999.90;999.90;;;21.90;92.80;;;;;;4985745;28;20317;-77
2022/09/21 08:03:54;;;;;;;1999.90;999.90;;;23.00;91.30;;;;;;4986653;28;20485;-77
2022/09/21 08:06:21;;;;;;;1999.90;999.90;;;22.90;90.70;;;;;;4988397;28;20055;-82
2022/09/21 08:08:48;;;;;;;1999.90;999.90;;;23.30;90.30;;;;;;4988444;28;20041;-77
2022/09/21 08:11:18;;;;;;;1999.90;999.90;;;22.80;90.60;;;;;;4988476;28;20030;-77
2022/09/21 08:13:44;;;;;;;1999.90;999.90;;;22.40;91.10;;;;;;4988267;28;20030;-77
2022/09/21 08:16:10;;;;;;;1999.90;999.90;;;22.70;90.70;;;;;;4985115;28;20453;-77
2022/09/21 08:18:37;;;;;;;1999.90;999.90;;;21.80;90.90;;;;;;4985375;28;20026;-76
2022/09/21 08:21:04;;;;;;;1999.90;999.90;;;20.00;93.00;;;;;;4988221;28;20037;-79
2022/09/21 08:23:29;;;;;;;1999.90;999.90;;;19.00;94.70;;;;;;4985835;28;20073;-77
2022/09/21 08:26:05;;;;;;;1999.90;999.90;;;20.70;93.10;;;;;;4986037;28;20100;-77
2022/09/21 08:28:31;;;;;;;1999.90;999.90;;;22.60;91.20;;;;;;4987775;28;20014;-77
2022/09/21 08:31:00;;;;;;;1999.90;999.90;;;23.50;90.00;;;;;;4987947;28;20436;-82
2022/09/21 08:33:26;;;;;;;1999.90;999.90;;;23.30;90.00;;;;;;4983859;28;20034;-77
2022/09/21 08:35:53;;;;;;;1999.90;999.90;;;23.40;90.10;;;;;;4984315;28;20426;-82
2022/09/21 08:38:19;;;;;;;1999.90;999.90;;;25.00;88.40;;;;;;4988390;28;20521;-77
2022/09/21 08:40:45;;;;;;;1999.90;999.90;;;25.20;86.80;;;;;;4987121;28;20038;-75
2022/09/21 08:43:17;;;;;;;1999.90;999.90;;;25.50;85.90;;;;;;4980962;28;20038;-75
2022/09/21 08:45:44;;;;;;;1999.90;999.90;;;26.50;84.90;;;;;;4980914;28;20421;-79
2022/09/21 08:48:23;;;;;;;1999.90;999.90;;;27.20;84.20;;;;;;4985634;28;20077;-75
2022/09/21 08:50:55;;;;;;;1999.90;999.90;;;26.90;83.30;;;;;;4979043;28;20037;-75
2022/09/21 08:53:42;;;;;;;;;;;26.10;83.20;;;;;;4993793;28;20030;-75
2022/09/21 08:56:12;;;;;;;1999.90;999.90;;;26.50;83.30;;;;;;4987886;28;20382;-75
2022/09/21 08:58:40;;;;;;;1999.90;999.90;;;26.80;83.20;;;;;;4986877;28;20094;-79
2022/09/21 09:01:26;;;;;;;1999.90;999.90;;;27.20;82.80;;;;;;4989174;28;20049;-83
2022/09/21 09:04:01;;;;;;;1999.90;999.90;;;26.40;82.80;;;;;;4983720;28;20026;-80
2022/09/21 09:06:32;;;;;;;1999.90;999.90;;;26.40;83.00;;;;;;4981138;28;20050;-75
2022/09/21 09:09:26;;;;;;;1999.90;999.90;;;26.30;83.40;;;;;;4981280;28;20422;-75
2022/09/21 09:12:01;;;;;;;1999.90;999.90;;;27.10;82.80;;;;;;4982732;28;20049;-80
2022/09/21 09:14:58;;;;;;;1999.90;999.90;;;27.40;82.00;;;;;;4980727;28;20038;-80
2022/09/21 09:18:08;;;;;;;1999.90;999.90;;;27.00;81.60;;;;;;4981802;28;20562;-80
2022/09/21 09:20:39;;;;;;;1999.90;999.90;;;27.10;81.90;;;;;;4988896;28;20042;-75
2022/09/21 09:23:26;;;;;;;1999.90;999.90;;;27.10;81.20;;;;;;4987082;28;20058;-75
2022/09/21 09:26:22;;;;;;;1999.90;999.90;;;26.20;82.40;;;;;;4970980;28;20030;-77
2022/09/21 09:28:54;;;;;;;1999.90;999.90;;;24.70;83.80;;;;;;4982363;28;20040;-82
2022/09/21 09:31:29;;;;;;;1999.90;999.90;;;23.30;87.00;;;;;;4990049;28;20041;-77
2022/09/21 09:34:08;;;;;;;1999.90;999.90;;;22.40;88.00;;;;;;4987604;28;20046;-77
2022/09/21 09:36:35;;;;;;;1999.90;999.90;;;22.30;88.70;;;;;;4990324;28;20138;-82
2022/09/21 09:39:09;;;;;;;1999.90;999.90;;;22.30;88.80;;;;;;4986750;28;20559;-77
2022/09/21 09:41:44;;;;;;;1999.90;999.90;;;22.70;88.70;;;;;;4989469;28;20147;-77
2022/09/21 09:44:47;;;;;;;1999.90;999.90;;;22.60;88.50;;;;;;4990193;28;20092;-77
2022/09/21 09:47:34;;;;;;;1999.90;999.90;;;22.20;87.80;;;;;;4988423;28;20093;-77
2022/09/21 09:50:20;;;;;;;1999.90;999.90;;;21.80;89.40;;;;;;4983049;28;20034;-78
2022/09/21 09:52:48;;;;;;;1999.90;999.90;;;21.80;89.60;;;;;;4979605;28;20522;-81
2022/09/21 09:55:23;;;;;;;1999.90;999.90;;;21.80;89.50;;;;;;4975431;28;20181;-81
2022/09/21 09:57:49;;;;;;;1999.90;999.90;;;21.80;89.70;;;;;;4987171;28;20088;-77
2022/09/21 10:00:18;;;;;;;1999.90;999.90;;;21.60;89.90;;;;;;4984269;28;20038;-77
2022/09/21 10:02:52;;;;;;;1999.90;999.90;;;21.60;89.90;;;;;;4985995;28;20033;-81
2022/09/21 10:05:29;;;;;;;1999.90;999.90;;;21.50;90.10;;;;;;4972454;28;20489;-82
2022/09/21 10:07:55;;;;;;;1999.90;999.90;;;21.60;90.30;;;;;;4979654;28;20030;-81
2022/09/21 10:10:22;;;;;;;1999.90;999.90;;;21.80;90.10;;;;;;4985716;28;20490;-81
2022/09/21 10:12:50;;;;;;;1999.90;999.90;;;21.80;90.10;;;;;;4974905;28;20066;-78
2022/09/21 10:15:17;;;;;;;1999.90;999.90;;;21.80;90.10;;;;;;4981824;28;20084;-82
2022/09/21 10:17:45;;;;;;;1999.90;999.90;;;21.90;90.00;;;;;;4982425;28;20085;-83
2022/09/21 10:20:17;;;;;;;1999.90;999.90;;;21.90;90.10;;;;;;4988910;28;20120;-83
2022/09/21 10:22:52;;;;;;;1999.90;999.90;;;21.90;89.40;;;;;;5001864;28;20080;-82
2022/09/21 10:25:19;;;;;;;1999.90;999.90;;;21.70;89.60;;;;;;4984122;28;20033;-79
2022/09/21 10:27:48;;;;;;;1999.90;999.90;;;21.90;89.50;;;;;;4987822;28;20045;-81
2022/09/21 10:30:29;;;;;;;1999.90;999.90;;;22.20;87.60;;;;;;4990126;28;20029;-83
2022/09/21 10:32:57;;;;;;;1999.90;999.90;;;22.20;87.60;;;;;;4984274;28;20041;-80
2022/09/21 10:35:24;;;;;;;1999.90;999.90;;;21.90;87.60;;;;;;4982176;28;20061;-83
2022/09/21 10:38:08;;;;;;;1999.90;999.90;;;21.80;87.60;;;;;;4988074;28;20030;-80
2022/09/21 10:40:38;;;;;;;1999.90;999.90;;;21.90;87.30;;;;;;4983788;28;20572;-83
2022/09/21 10:43:04;;;;;;;1999.90;999.90;;;22.00;88.20;;;;;;4981168;28;20058;-78
2022/09/21 10:45:33;;;;;;;1999.90;999.90;;;21.90;87.90;;;;;;4987295;28;20088;-81
2022/09/21 10:48:05;;;;;;;1999.90;999.90;;;21.70;87.70;;;;;;4979093;28;20532;-83
2022/09/21 10:50:45;;;;;;;1999.90;999.90;;;21.80;87.60;;;;;;4973226;28;20045;-79
2022/09/21 10:53:32;;;;;;;1999.90;999.90;;;21.90;87.80;;;;;;4981893;28;20033;-83
2022/09/21 10:56:15;;;;;;;1999.90;999.90;;;21.90;88.20;;;;;;4984986;28;20527;-83
2022/09/21 10:59:09;;;;;;;1999.90;999.90;;;21.90;87.50;;;;;;4988908;28;20037;-84
2022/09/21 11:01:35;;;;;;;1999.90;999.90;;;21.90;87.80;;;;;;4990801;28;20030;-83
2022/09/21 11:04:10;;;;;;;1999.90;999.90;;;22.10;87.10;;;;;;4991756;28;20042;-83
2022/09/21 11:06:45;;;;;;;1999.90;999.90;;;22.10;87.50;;;;;;4989856;28;20062;-83
2022/09/21 11:09:49;;;;;;;1999.90;999.90;;;22.30;88.00;;;;;;4991557;28;20027;-83
2022/09/21 11:12:48;;;;;;;1999.90;999.90;;;22.40;86.90;;;;;;4986244;28;20034;-79
2022/09/21 11:15:37;;;;;;;1999.90;999.90;;;22.40;87.00;;;;;;4984180;28;20552;-79
2022/09/21 11:18:38;;;;;;;1999.90;999.90;;;22.30;87.00;;;;;;4970406;28;20057;-78
2022/09/21 11:21:23;;;;;;;1999.90;999.90;;;21.90;87.40;;;;;;4986882;28;20055;-84
2022/09/21 11:24:02;;;;;;;1999.90;999.90;;;22.10;87.30;;;;;;4985702;28;20121;-83
2022/09/21 11:26:33;;;;;;;1999.90;999.90;;;22.00;87.10;;;;;;4987194;28;20513;-81
2022/09/21 11:29:12;;;;;;;1999.90;999.90;;;22.10;87.10;;;;;;4984223;28;20058;-79
2022/09/21 11:32:15;;;;;;;1999.90;999.90;;;22.10;87.40;;;;;;4988392;28;20489;-83
2022/09/21 11:35:05;;;;;;;1999.90;999.90;;;22.30;87.10;;;;;;4988463;28;20394;-84
2022/09/21 11:38:03;;;;;;;1999.90;999.90;;;22.50;87.20;;;;;;4980270;28;20038;-83
2022/09/21 11:40:56;;;;;;;1999.90;999.90;;;22.30;87.20;;;;;;4989015;28;20441;-84
2022/09/21 11:43:24;;;;;;;1999.90;999.90;;;22.50;87.90;;;;;;4990310;28;20473;-79
2022/09/21 11:45:56;;;;;;;1999.90;999.90;;;22.40;86.80;;;;;;4988667;28;20066;-84
2022/09/21 11:48:46;;;;;;;1999.90;999.90;;;22.70;86.60;;;;;;4987729;28;20022;-83
2022/09/21 11:51:46;;;;;;;1999.90;999.90;;;22.80;86.20;;;;;;4980000;28;20050;-84
2022/09/21 11:54:35;;;;;;;1999.90;999.90;;;22.70;87.00;;;;;;4982779;28;20048;-79
2022/09/21 11:57:01;;;;;;;1999.90;999.90;;;22.60;85.90;;;;;;4979711;28;20023;-77
2022/09/21 11:59:54;;;;;;;1999.90;999.90;;;22.70;86.60;;;;;;4984255;28;20045;-81
2022/09/21 12:03:07;;;;;;;1999.90;999.90;;;22.80;86.60;;;;;;4987175;28;20039;-83
2022/09/21 12:05:39;;;;;;;1999.90;999.90;;;23.00;85.80;;;;;;4987855;28;20101;-82
2022/09/21 12:08:30;;;;;;;1999.90;999.90;;;23.10;86.20;;;;;;4989175;28;20026;-78
2022/09/21 12:11:23;;;;;;;1999.90;999.90;;;23.20;85.90;;;;;;4978137;28;20034;-82
2022/09/21 12:14:03;;;;;;;1999.90;999.90;;;23.00;86.10;;;;;;4981909;28;20065;-82
2022/09/21 12:16:41;;;;;;;1999.90;999.90;;;23.30;86.30;;;;;;4983849;28;20605;-82
2022/09/21 12:19:47;;;;;;;1999.90;999.90;;;23.70;86.00;;;;;;4978559;28;20068;-82
2022/09/21 12:22:26;;;;;;;1999.90;999.90;;;24.40;84.10;;;;;;4980371;28;20038;-82
2022/09/21 12:25:31;;;;;;;1999.90;999.90;;;24.00;84.20;;;;;;4980528;28;20050;-82
2022/09/21 12:28:30;;;;;;;1999.90;999.90;;;23.80;84.90;;;;;;4989350;28;20120;-84
2022/09/21 12:31:05;;;;;;;1999.90;999.90;;;23.50;84.70;;;;;;4988895;28;20097;-82
2022/09/21 12:33:52;;;;;;;1999.90;999.90;;;23.60;85.50;;;;;;4992906;28;20026;-78